Time;durP1;ratioP1;P1;durP2;ratioP2;P2;SDS_P1;SDS_P2;PMS_P1;PMS_P2;Temp;Humidity;BMP_temperature;BMP_pressure;BME280_temperature;BME280_humidity;BME280_pressure;Samples;Min_cycle;Max_cycle;Signal;HPM_P1;HPM_P2
2021/08/13 00:00:54;;;;;;;8.93;8.00;;;20.30;99.90;;;;;;5028191;28;20037;-38
2021/08/13 00:03:20;;;;;;;8.80;7.95;;;20.30;99.90;;;;;;5028666;28;20144;-40
2021/08/13 00:05:47;;;;;;;9.02;7.80;;;20.30;99.90;;;;;;5028543;28;20064;-43
2021/08/13 00:08:13;;;;;;;8.70;7.90;;;20.40;99.90;;;;;;5028990;28;20032;-42
2021/08/13 00:10:39;;;;;;;8.40;7.53;;;20.40;99.90;;;;;;5028095;28;20018;-39
2021/08/13 00:13:05;;;;;;;9.20;8.30;;;20.40;99.90;;;;;;5028054;28;20298;-41
2021/08/13 00:15:30;;;;;;;8.43;7.32;;;20.50;99.90;;;;;;5027853;28;20561;-40
2021/08/13 00:17:56;;;;;;;8.57;7.72;;;20.40;99.90;;;;;;5028286;28;20152;-40
2021/08/13 00:20:22;;;;;;;8.98;8.07;;;20.40;99.90;;;;;;5028108;28;20104;-38
2021/08/13 00:22:48;;;;;;;9.70;7.72;;;20.40;99.90;;;;;;5027858;28;20412;-41
2021/08/13 00:25:14;;;;;;;8.52;7.57;;;20.40;99.90;;;;;;5028677;28;20104;-43
2021/08/13 00:27:39;;;;;;;9.35;7.25;;;20.40;99.90;;;;;;5028074;28;20545;-43
2021/08/13 00:30:06;;;;;;;10.32;8.45;;;20.30;99.90;;;;;;5027819;28;20025;-40
2021/08/13 00:32:32;;;;;;;9.25;7.45;;;20.30;99.90;;;;;;5031437;28;20112;-41
2021/08/13 00:34:57;;;;;;;10.13;7.15;;;20.20;99.90;;;;;;5032247;28;20101;-41
2021/08/13 00:37:23;;;;;;;8.43;7.10;;;20.20;99.90;;;;;;5031244;28;20018;-40
2021/08/13 00:39:48;;;;;;;7.70;6.90;;;20.10;99.90;;;;;;5032100;28;20037;-42
2021/08/13 00:42:14;;;;;;;7.35;6.65;;;20.10;99.90;;;;;;5031945;28;20028;-40
2021/08/13 00:44:40;;;;;;;8.95;7.10;;;20.00;99.90;;;;;;5031252;28;20021;-39
2021/08/13 00:47:06;;;;;;;9.02;7.18;;;20.00;99.90;;;;;;5032121;28;20064;-40
2021/08/13 00:49:31;;;;;;;9.43;6.88;;;20.00;99.90;;;;;;5031891;28;20025;-40
2021/08/13 00:51:57;;;;;;;8.10;6.65;;;20.00;99.90;;;;;;5030261;28;20051;-37
2021/08/13 00:54:23;;;;;;;8.65;6.97;;;20.00;99.90;;;;;;5031983;28;20028;-40
2021/08/13 00:56:49;;;;;;;7.45;6.45;;;19.90;99.90;;;;;;5031210;28;20021;-41
2021/08/13 00:59:14;;;;;;;8.60;6.78;;;19.90;99.90;;;;;;5031408;28;20036;-40
2021/08/13 01:01:40;;;;;;;7.55;6.47;;;19.80;99.90;;;;;;5031612;28;20029;-40
2021/08/13 01:04:05;;;;;;;6.97;6.28;;;19.80;99.90;;;;;;5031489;28;20362;-41
2021/08/13 01:06:31;;;;;;;7.60;6.80;;;19.70;99.90;;;;;;5031607;28;20385;-42
2021/08/13 01:08:57;;;;;;;8.00;7.20;;;19.70;99.90;;;;;;5030321;28;20021;-38
2021/08/13 01:11:37;;;;;;;9.13;6.90;;;19.60;99.90;;;;;;5030716;28;20145;-42
2021/08/13 01:14:09;;;;;;;7.35;6.65;;;19.60;99.90;;;;;;5030620;28;20017;-41
2021/08/13 01:16:41;;;;;;;8.23;7.30;;;19.60;99.90;;;;;;5032028;28;20025;-42
2021/08/13 01:19:23;;;;;;;14.70;7.65;;;19.60;99.90;;;;;;5030538;28;20037;-38
2021/08/13 01:21:59;;;;;;;7.40;6.70;;;19.60;99.90;;;;;;5031130;28;20113;-42
2021/08/13 01:24:27;;;;;;;8.27;7.47;;;19.60;99.90;;;;;;5031621;28;20095;-38
2021/08/13 01:27:01;;;;;;;7.63;6.55;;;19.70;99.90;;;;;;5030042;28;20030;-40
2021/08/13 01:29:41;;;;;;;7.80;6.97;;;19.80;99.90;;;;;;5031003;28;20026;-42
2021/08/13 01:32:12;;;;;;;8.40;7.00;;;19.80;99.90;;;;;;5031435;28;20037;-37
2021/08/13 01:34:45;;;;;;;7.70;7.00;;;19.80;99.90;;;;;;5030035;28;20108;-42
2021/08/13 01:37:13;;;;;;;9.05;6.95;;;19.80;99.90;;;;;;5030714;28;20018;-37
2021/08/13 01:39:39;;;;;;;9.10;7.10;;;19.80;99.90;;;;;;5030987;28;20025;-40
2021/08/13 01:42:06;;;;;;;7.65;6.85;;;19.90;99.90;;;;;;5029979;28;20560;-39
2021/08/13 01:44:33;;;;;;;7.57;6.70;;;19.90;99.90;;;;;;5029845;28;20390;-39
2021/08/13 01:46:59;;;;;;;7.05;6.35;;;19.90;99.90;;;;;;5030458;28;20503;-36
2021/08/13 01:49:26;;;;;;;7.20;6.32;;;19.80;99.90;;;;;;5030169;28;20036;-40
2021/08/13 01:51:53;;;;;;;7.10;6.18;;;19.80;99.90;;;;;;5030675;28;20026;-39
2021/08/13 01:54:20;;;;;;;7.45;6.55;;;19.80;99.90;;;;;;5030670;28;20072;-42
2021/08/13 01:56:46;;;;;;;7.57;6.80;;;19.80;99.90;;;;;;5030275;28;20112;-37
2021/08/13 01:59:13;;;;;;;8.77;6.45;;;19.70;99.90;;;;;;5030544;28;20144;-41
2021/08/13 02:01:39;;;;;;;6.90;6.15;;;19.70;99.90;;;;;;5029828;28;20030;-41
2021/08/13 02:04:06;;;;;;;7.38;6.60;;;19.60;99.90;;;;;;5030305;28;20021;-41
2021/08/13 02:06:34;;;;;;;7.28;6.53;;;19.60;99.90;;;;;;5019722;28;20033;-40
2021/08/13 02:09:01;;;;;;;11.20;6.53;;;19.40;99.90;;;;;;5029934;28;20026;-41
2021/08/13 02:11:27;;;;;;;7.38;6.68;;;19.40;99.90;;;;;;5030203;28;20050;-39
2021/08/13 02:13:54;;;;;;;7.35;6.65;;;19.40;99.90;;;;;;5029975;28;20028;-40
2021/08/13 02:16:24;;;;;;;6.90;6.18;;;19.30;99.90;;;;;;5029882;28;20113;-37
2021/08/13 02:18:58;;;;;;;7.45;6.57;;;19.30;99.90;;;;;;5030192;28;20438;-39
2021/08/13 02:21:26;;;;;;;6.90;6.22;;;19.30;99.90;;;;;;5030202;28;20021;-41
2021/08/13 02:23:52;;;;;;;7.97;7.15;;;19.30;99.90;;;;;;5029613;28;20477;-42
2021/08/13 02:26:17;;;;;;;9.02;7.22;;;19.30;99.90;;;;;;5029572;28;20103;-38
2021/08/13 02:28:43;;;;;;;7.55;6.85;;;19.30;99.90;;;;;;5030128;28;20013;-41
2021/08/13 02:31:09;;;;;;;10.15;6.85;;;19.30;99.90;;;;;;5028883;28;20045;-41
2021/08/13 02:33:34;;;;;;;6.97;6.22;;;19.30;99.90;;;;;;5030047;28;20060;-41
2021/08/13 02:36:07;;;;;;;7.90;7.10;;;19.20;99.90;;;;;;5029415;28;20488;-38
2021/08/13 02:38:40;;;;;;;7.45;6.75;;;19.20;99.90;;;;;;5029782;28;20079;-38
2021/08/13 02:41:07;;;;;;;9.48;7.40;;;19.10;99.90;;;;;;5029396;28;20053;-39
2021/08/13 02:43:41;;;;;;;8.25;7.45;;;19.10;99.90;;;;;;5029628;28;20092;-39
2021/08/13 02:46:09;;;;;;;8.02;7.22;;;19.20;99.90;;;;;;5029662;28;20021;-42
2021/08/13 02:48:38;;;;;;;9.27;7.20;;;19.10;99.90;;;;;;5029718;28;20018;-40
2021/08/13 02:51:05;;;;;;;8.93;7.63;;;19.00;99.90;;;;;;5028490;28;20029;-41
2021/08/13 02:53:36;;;;;;;9.57;8.13;;;18.90;99.90;;;;;;5030174;28;20025;-41
2021/08/13 02:56:06;;;;;;;9.25;7.90;;;18.90;99.90;;;;;;5029770;28;20021;-36
2021/08/13 02:58:59;;;;;;;9.35;7.85;;;18.90;99.90;;;;;;5029329;28;20021;-40
2021/08/13 03:01:28;;;;;;;11.82;8.32;;;18.90;99.90;;;;;;5029212;28;20029;-37
2021/08/13 03:03:54;;;;;;;10.23;8.68;;;18.90;99.90;;;;;;5029232;28;20032;-41
2021/08/13 03:06:23;;;;;;;9.43;8.50;;;18.80;99.90;;;;;;5028853;28;20100;-42
2021/08/13 03:08:49;;;;;;;9.35;8.32;;;18.80;99.90;;;;;;5029339;28;20022;-39
2021/08/13 03:11:18;;;;;;;8.73;7.82;;;18.70;99.90;;;;;;5029040;28;20067;-35
2021/08/13 03:13:44;;;;;;;9.05;8.00;;;18.70;99.90;;;;;;5029208;28;20018;-42
2021/08/13 03:16:13;;;;;;;10.73;8.35;;;18.60;99.90;;;;;;5029102;28;20018;-41
2021/08/13 03:18:40;;;;;;;8.63;7.72;;;18.60;99.90;;;;;;5028630;28;20044;-41
2021/08/13 03:21:07;;;;;;;8.95;8.05;;;18.60;99.90;;;;;;5029221;28;20155;-40
2021/08/13 03:23:33;;;;;;;9.20;7.95;;;18.60;99.90;;;;;;5029855;28;20079;-41
2021/08/13 03:25:59;;;;;;;9.95;8.95;;;18.70;99.90;;;;;;5028103;28;20068;-38
2021/08/13 03:28:25;;;;;;;9.45;8.15;;;18.60;99.90;;;;;;5028386;28;20052;-37
2021/08/13 03:30:51;;;;;;;8.75;7.80;;;18.60;99.90;;;;;;5029064;28;20473;-42
2021/08/13 03:33:17;;;;;;;9.98;8.27;;;18.60;99.90;;;;;;5028252;28;20032;-37
2021/08/13 03:35:46;;;;;;;8.60;7.80;;;18.60;99.90;;;;;;5028671;28;20049;-41
2021/08/13 03:38:13;;;;;;;10.75;8.77;;;18.60;99.90;;;;;;5029454;28;20531;-40
2021/08/13 03:40:39;;;;;;;9.88;8.15;;;18.60;99.90;;;;;;5028043;28;20370;-39
2021/08/13 03:43:05;;;;;;;9.02;8.13;;;18.60;99.90;;;;;;5029134;28;20030;-42
2021/08/13 03:45:30;;;;;;;10.02;8.65;;;18.60;99.90;;;;;;5028850;28;20025;-42
2021/08/13 03:47:56;;;;;;;10.05;8.52;;;18.60;99.90;;;;;;5027786;28;20029;-37
2021/08/13 03:50:22;;;;;;;10.23;8.40;;;18.50;99.90;;;;;;5028942;28;20028;-40
2021/08/13 03:52:47;;;;;;;11.40;9.73;;;18.50;99.90;;;;;;5028703;28;20029;-39
2021/08/13 03:55:13;;;;;;;11.05;9.93;;;18.50;99.90;;;;;;5028721;28;20080;-40
2021/08/13 03:57:40;;;;;;;10.32;8.95;;;18.50;99.90;;;;;;5028414;28;20052;-42
2021/08/13 04:00:07;;;;;;;11.55;9.85;;;18.50;99.90;;;;;;5028963;28;20373;-41
2021/08/13 04:02:33;;;;;;;13.10;9.90;;;18.50;99.90;;;;;;5028184;28;20521;-37
2021/08/13 04:04:58;;;;;;;9.63;8.63;;;18.50;99.90;;;;;;5028084;28;20076;-42
2021/08/13 04:07:24;;;;;;;9.57;8.68;;;18.50;99.90;;;;;;5031492;28;20035;-39
2021/08/13 04:09:49;;;;;;;10.98;9.88;;;18.50;99.90;;;;;;5032442;28;20554;-39
2021/08/13 04:12:15;;;;;;;13.57;9.93;;;18.50;99.90;;;;;;5032674;28;20104;-42
2021/08/13 04:14:41;;;;;;;12.20;10.40;;;18.50;99.90;;;;;;5031840;28;20242;-41
2021/08/13 04:17:07;;;;;;;12.60;10.60;;;18.50;99.90;;;;;;5032451;28;20036;-36
2021/08/13 04:19:32;;;;;;;11.63;10.15;;;18.50;99.90;;;;;;5032465;28;20026;-37
2021/08/13 04:21:58;;;;;;;12.75;10.60;;;18.50;99.90;;;;;;5031932;28;20090;-42
2021/08/13 04:24:24;;;;;;;14.25;10.52;;;18.60;99.90;;;;;;5032867;28;20075;-40
2021/08/13 04:26:49;;;;;;;13.02;10.25;;;18.60;99.90;;;;;;5032039;28;20033;-41
2021/08/13 04:29:15;;;;;;;12.57;10.38;;;18.70;99.90;;;;;;5031997;28;20074;-42
2021/08/13 04:31:40;;;;;;;11.40;9.88;;;18.60;99.90;;;;;;5031877;28;20342;-41
2021/08/13 04:34:06;;;;;;;12.63;10.18;;;18.70;99.90;;;;;;5031952;28;20103;-41
2021/08/13 04:36:32;;;;;;;13.30;10.80;;;18.70;99.90;;;;;;5032324;28;20083;-38
2021/08/13 04:38:58;;;;;;;12.38;9.95;;;18.80;99.90;;;;;;5032018;28;20120;-37
2021/08/13 04:41:23;;;;;;;11.60;10.45;;;18.80;99.90;;;;;;5032584;28;20108;-39
2021/08/13 04:43:49;;;;;;;12.20;9.98;;;18.90;99.90;;;;;;5031058;28;20017;-39
2021/08/13 04:46:15;;;;;;;11.50;10.30;;;19.00;99.90;;;;;;5032807;28;20029;-41
2021/08/13 04:48:40;;;;;;;12.32;11.00;;;19.00;99.90;;;;;;5032340;28;20362;-43
2021/08/13 04:51:06;;;;;;;11.48;10.23;;;19.00;99.90;;;;;;5031684;28;20398;-40
2021/08/13 04:53:32;;;;;;;11.38;9.65;;;19.10;99.90;;;;;;5032164;28;20591;-40
2021/08/13 04:55:57;;;;;;;12.27;10.35;;;19.10;99.90;;;;;;5031331;28;20021;-40
2021/08/13 04:58:23;;;;;;;11.07;9.77;;;19.10;99.90;;;;;;5031831;28;20026;-37
2021/08/13 05:00:48;;;;;;;12.32;10.10;;;19.10;99.90;;;;;;5031063;28;20036;-42
2021/08/13 05:03:14;;;;;;;12.32;9.80;;;19.10;99.90;;;;;;5032225;28;20029;-41
2021/08/13 05:05:40;;;;;;;12.82;10.82;;;19.20;99.90;;;;;;5030923;28;20032;-37
2021/08/13 05:08:06;;;;;;;11.43;10.05;;;19.20;99.90;;;;;;5031764;28;20020;-36
2021/08/13 05:10:32;;;;;;;12.10;10.90;;;19.20;99.90;;;;;;5031904;28;20029;-40
2021/08/13 05:12:58;;;;;;;14.63;11.27;;;19.20;99.90;;;;;;5030693;28;20033;-39
2021/08/13 05:15:23;;;;;;;16.02;13.30;;;19.20;99.90;;;;;;5031571;28;20469;-41
2021/08/13 05:17:49;;;;;;;18.45;15.10;;;19.20;99.90;;;;;;5029445;28;20018;-39
2021/08/13 05:20:15;;;;;;;16.10;13.13;;;19.20;99.90;;;;;;5031563;28;20025;-41
2021/08/13 05:22:40;;;;;;;16.58;13.07;;;19.30;99.90;;;;;;5031649;28;20021;-40
2021/08/13 05:25:09;;;;;;;18.10;13.05;;;19.30;99.90;;;;;;5031165;28;20851;-36
2021/08/13 05:27:36;;;;;;;21.02;14.98;;;19.30;99.90;;;;;;5032015;28;20044;-40
2021/08/13 05:30:02;;;;;;;19.85;14.20;;;19.30;99.90;;;;;;5031200;28;20100;-41
2021/08/13 05:32:29;;;;;;;14.60;12.85;;;19.30;99.90;;;;;;5030661;28;20040;-41
2021/08/13 05:34:54;;;;;;;15.35;12.77;;;19.30;99.90;;;;;;5031482;28;20485;-39
2021/08/13 05:37:20;;;;;;;15.63;12.10;;;19.30;99.90;;;;;;5031368;28;20049;-40
2021/08/13 05:39:46;;;;;;;13.80;11.70;;;19.40;99.90;;;;;;5030531;28;20029;-40
2021/08/13 05:42:11;;;;;;;12.82;11.00;;;19.40;99.90;;;;;;5031077;28;20025;-40
2021/08/13 05:44:38;;;;;;;13.88;10.48;;;19.50;99.90;;;;;;5030798;28;20495;-38
2021/08/13 05:47:05;;;;;;;13.82;10.65;;;19.60;99.90;;;;;;5030763;28;20038;-39
2021/08/13 05:49:30;;;;;;;12.90;10.82;;;19.60;99.90;;;;;;5031460;28;20075;-39
2021/08/13 05:51:57;;;;;;;13.85;11.55;;;19.70;99.90;;;;;;5030497;28;20935;-39
2021/08/13 05:54:23;;;;;;;12.10;10.77;;;19.80;99.90;;;;;;5030591;28;20029;-42
2021/08/13 05:56:48;;;;;;;13.60;11.40;;;19.80;99.90;;;;;;5030355;28;20021;-38
2021/08/13 05:59:14;;;;;;;12.57;11.02;;;19.90;99.90;;;;;;5031083;28;20045;-37
2021/08/13 06:01:40;;;;;;;14.32;11.52;;;20.00;99.90;;;;;;5030267;28;20022;-40
2021/08/13 06:04:05;;;;;;;12.85;11.10;;;20.00;99.90;;;;;;5031015;28;20104;-41
2021/08/13 06:06:31;;;;;;;14.73;11.85;;;20.00;99.90;;;;;;5030410;28;20482;-38
2021/08/13 06:08:56;;;;;;;13.30;11.90;;;20.10;99.90;;;;;;5030123;28;20376;-42
2021/08/13 06:11:22;;;;;;;13.27;11.23;;;20.10;99.90;;;;;;5030663;28;20049;-41
2021/08/13 06:13:48;;;;;;;13.13;10.73;;;20.20;99.90;;;;;;5025449;28;20036;-38
2021/08/13 06:16:18;;;;;;;14.30;9.82;;;20.20;99.90;;;;;;5024860;28;20072;-39
2021/08/13 06:18:43;;;;;;;9.98;8.98;;;20.20;99.90;;;;;;5028141;28;20022;-41
2021/08/13 06:21:09;;;;;;;9.85;8.85;;;20.20;99.90;;;;;;5028790;28;20037;-34
2021/08/13 06:23:34;;;;;;;10.80;8.57;;;20.20;99.90;;;;;;5029918;28;20025;-41
2021/08/13 06:26:00;;;;;;;9.13;8.20;;;20.20;99.90;;;;;;5028782;28;20030;-41
2021/08/13 06:28:25;;;;;;;9.02;8.13;;;20.30;99.90;;;;;;5029065;28;20079;-41
2021/08/13 06:30:51;;;;;;;8.65;7.65;;;20.30;99.90;;;;;;5028569;28;20325;-41
2021/08/13 06:33:17;;;;;;;8.15;7.10;;;20.20;99.90;;;;;;5030061;28;20523;-41
2021/08/13 06:35:42;;;;;;;9.02;7.63;;;20.30;99.90;;;;;;5027779;28;20065;-37
2021/08/13 06:38:09;;;;;;;9.98;8.43;;;20.30;99.90;;;;;;5029071;28;20048;-41
2021/08/13 06:40:34;;;;;;;8.10;7.30;;;20.30;99.90;;;;;;5029749;28;20567;-41
2021/08/13 06:43:00;;;;;;;9.25;7.30;;;20.30;99.90;;;;;;5028059;28;20021;-41
2021/08/13 06:45:27;;;;;;;7.93;6.90;;;20.30;99.90;;;;;;5029880;28;20056;-40
2021/08/13 06:47:53;;;;;;;10.07;8.40;;;20.30;99.90;;;;;;5029659;28;20086;-41
2021/08/13 06:50:19;;;;;;;10.52;8.48;;;20.30;99.90;;;;;;5029477;28;20761;-37
2021/08/13 06:52:44;;;;;;;8.82;7.30;;;20.30;99.90;;;;;;5028220;28;20022;-39
2021/08/13 06:55:11;;;;;;;8.50;7.38;;;20.30;99.90;;;;;;5028753;28;20013;-41
2021/08/13 06:57:37;;;;;;;9.43;7.63;;;20.30;99.90;;;;;;5029104;28;20037;-42
2021/08/13 07:00:08;;;;;;;9.27;7.60;;;20.30;99.90;;;;;;5029855;28;20416;-39
2021/08/13 07:02:33;;;;;;;8.27;7.43;;;20.30;99.90;;;;;;5029831;28;20025;-37
2021/08/13 07:04:59;;;;;;;9.15;7.28;;;20.40;99.90;;;;;;5028339;28;20027;-41
2021/08/13 07:07:24;;;;;;;12.90;8.27;;;20.40;99.90;;;;;;5029612;28;20038;-39
2021/08/13 07:09:50;;;;;;;12.00;8.77;;;20.40;99.90;;;;;;5028739;28;20018;-40
2021/08/13 07:12:16;;;;;;;11.93;10.07;;;20.40;99.90;;;;;;5029266;28;20069;-41
2021/08/13 07:14:42;;;;;;;9.82;7.80;;;20.40;99.90;;;;;;5029317;28;20006;-40
2021/08/13 07:17:08;;;;;;;11.10;8.57;;;20.40;99.90;;;;;;5036832;28;20025;-39
2021/08/13 07:19:35;;;;;;;11.05;8.40;;;20.50;99.90;;;;;;5039028;28;20017;-41
2021/08/13 07:22:01;;;;;;;12.43;8.93;;;20.60;99.90;;;;;;5029253;28;20014;-42
2021/08/13 07:24:26;;;;;;;9.63;8.10;;;20.60;99.90;;;;;;5028550;28;20025;-40
2021/08/13 07:26:52;;;;;;;8.02;6.75;;;20.70;99.90;;;;;;5028990;28;20061;-38
2021/08/13 07:29:18;;;;;;;10.55;8.13;;;20.80;99.90;;;;;;5029405;28;20017;-41
2021/08/13 07:31:43;;;;;;;9.43;7.07;;;20.80;99.90;;;;;;5027810;28;20079;-40
2021/08/13 07:34:09;;;;;;;8.05;6.13;;;20.80;99.90;;;;;;5029585;28;20376;-38
2021/08/13 07:36:34;;;;;;;8.77;7.63;;;20.80;99.90;;;;;;5028990;28;20014;-37
2021/08/13 07:39:00;;;;;;;11.93;8.45;;;20.80;99.90;;;;;;5028124;28;20459;-36
2021/08/13 07:41:25;;;;;;;8.80;7.55;;;20.90;99.90;;;;;;5028967;28;20109;-41
2021/08/13 07:43:51;;;;;;;10.57;8.38;;;20.90;99.90;;;;;;5028318;28;20022;-39
2021/08/13 07:46:16;;;;;;;10.40;7.40;;;20.80;99.90;;;;;;5028296;28;20505;-39
2021/08/13 07:48:42;;;;;;;13.50;9.77;;;20.80;99.90;;;;;;5029114;28;20025;-40
2021/08/13 07:51:08;;;;;;;11.65;8.93;;;20.80;99.90;;;;;;5030991;28;20096;-41
2021/08/13 07:53:33;;;;;;;11.07;8.27;;;20.80;99.90;;;;;;5028220;28;20032;-41
2021/08/13 07:55:59;;;;;;;13.73;9.20;;;20.70;99.90;;;;;;5028247;28;20029;-42
2021/08/13 07:58:24;;;;;;;10.90;8.05;;;20.80;99.90;;;;;;5029233;28;20037;-40
2021/08/13 08:00:52;;;;;;;13.85;9.05;;;20.90;99.90;;;;;;5028289;28;20045;-41
2021/08/13 08:03:18;;;;;;;14.20;9.00;;;20.90;99.90;;;;;;5029114;28;20481;-42
2021/08/13 08:05:43;;;;;;;12.40;8.77;;;20.90;99.90;;;;;;5028269;28;20029;-40
2021/08/13 08:08:09;;;;;;;11.20;8.00;;;20.90;99.90;;;;;;5027993;28;20120;-41
2021/08/13 08:10:34;;;;;;;8.52;6.63;;;20.80;99.90;;;;;;5029154;28;20050;-42
2021/08/13 08:13:00;;;;;;;9.18;7.75;;;20.80;99.90;;;;;;5028490;28;20385;-38
2021/08/13 08:15:26;;;;;;;10.73;7.90;;;20.90;99.90;;;;;;5029114;28;20014;-42
2021/08/13 08:17:51;;;;;;;10.82;8.48;;;20.90;99.90;;;;;;5028112;28;20026;-40
2021/08/13 08:20:17;;;;;;;10.55;7.35;;;20.90;99.90;;;;;;5029087;28;20404;-43
2021/08/13 08:22:45;;;;;;;8.65;7.10;;;20.90;99.90;;;;;;5028047;28;20025;-37
2021/08/13 08:25:11;;;;;;;9.40;6.85;;;21.00;99.90;;;;;;5029211;28;20037;-40
2021/08/13 08:27:37;;;;;;;7.43;5.88;;;21.00;99.90;;;;;;5028347;28;20030;-37
2021/08/13 08:30:04;;;;;;;8.05;5.40;;;21.20;99.90;;;;;;5028407;28;20049;-41
2021/08/13 08:32:29;;;;;;;7.78;5.80;;;21.30;99.90;;;;;;5028083;28;20025;-41
2021/08/13 08:34:55;;;;;;;8.68;6.10;;;21.40;99.90;;;;;;5027739;28;20389;-40
2021/08/13 08:37:21;;;;;;;7.65;5.53;;;21.40;99.90;;;;;;5026561;28;20061;-41
2021/08/13 08:39:47;;;;;;;5.88;4.88;;;21.50;99.90;;;;;;5029224;28;20072;-39
2021/08/13 08:42:18;;;;;;;5.55;4.97;;;21.50;99.90;;;;;;5035614;28;20034;-41
2021/08/13 08:44:44;;;;;;;5.70;4.53;;;21.40;99.90;;;;;;5028261;28;20053;-41
2021/08/13 08:47:11;;;;;;;6.72;5.32;;;21.50;99.90;;;;;;5030620;28;20065;-38
2021/08/13 08:49:40;;;;;;;8.35;5.40;;;21.50;99.90;;;;;;5028037;28;20034;-42
2021/08/13 08:52:07;;;;;;;8.07;5.53;;;21.60;99.90;;;;;;5028947;28;20390;-42
2021/08/13 08:54:35;;;;;;;8.50;5.75;;;21.60;99.90;;;;;;5032325;28;20092;-37
2021/08/13 08:57:02;;;;;;;7.95;5.10;;;21.70;99.90;;;;;;5031096;28;20026;-37
2021/08/13 08:59:28;;;;;;;8.75;5.70;;;21.70;99.90;;;;;;5032392;28;20025;-42
2021/08/13 09:01:56;;;;;;;6.10;4.97;;;21.70;99.90;;;;;;5031605;28;20025;-42
2021/08/13 09:04:22;;;;;;;6.22;4.72;;;21.80;99.90;;;;;;5031523;28;20018;-42
2021/08/13 09:06:47;;;;;;;5.15;4.55;;;21.80;99.90;;;;;;5031288;28;20133;-39
2021/08/13 09:09:13;;;;;;;7.25;5.65;;;21.90;99.90;;;;;;5030601;28;20040;-43
2021/08/13 09:11:39;;;;;;;5.25;4.75;;;21.90;99.90;;;;;;5030965;28;20049;-41
2021/08/13 09:14:08;;;;;;;5.50;4.43;;;21.80;99.90;;;;;;5031483;28;20652;-40
2021/08/13 09:16:34;;;;;;;5.60;4.72;;;21.80;99.90;;;;;;5031430;28;20025;-42
2021/08/13 09:19:09;;;;;;;7.47;5.10;;;21.80;99.90;;;;;;5030597;28;20061;-40
2021/08/13 09:21:36;;;;;;;9.48;5.60;;;21.80;99.90;;;;;;5031673;28;20025;-38
2021/08/13 09:24:12;;;;;;;8.73;6.15;;;21.90;99.90;;;;;;5031020;28;20457;-39
2021/08/13 09:26:41;;;;;;;6.78;5.88;;;21.90;99.90;;;;;;5031187;28;20087;-42
2021/08/13 09:29:08;;;;;;;7.25;5.70;;;22.00;99.90;;;;;;5030826;28;20017;-39
2021/08/13 09:31:36;;;;;;;6.60;5.40;;;22.20;99.90;;;;;;5030814;28;20442;-41
2021/08/13 09:34:14;;;;;;;5.43;4.80;;;22.40;99.90;;;;;;5031047;28;20420;-39
2021/08/13 09:36:51;;;;;;;6.50;5.00;;;22.50;99.90;;;;;;5020923;28;20029;-41
2021/08/13 09:39:24;;;;;;;5.70;4.57;;;22.60;99.80;;;;;;5030881;28;20033;-42
2021/08/13 09:41:53;;;;;;;4.80;4.22;;;22.70;99.70;;;;;;5020115;28;20037;-42
2021/08/13 09:44:30;;;;;;;5.30;4.38;;;22.80;99.50;;;;;;5031155;28;20070;-42
2021/08/13 09:47:10;;;;;;;6.05;5.00;;;22.90;99.30;;;;;;5019111;28;20037;-43
2021/08/13 09:49:43;;;;;;;5.28;4.00;;;22.90;99.20;;;;;;5031008;28;20017;-42
2021/08/13 09:52:16;;;;;;;5.50;3.55;;;22.90;98.80;;;;;;5019797;28;20028;-40
2021/08/13 09:54:42;;;;;;;6.05;3.97;;;22.90;98.60;;;;;;5031032;28;20025;-41
2021/08/13 09:57:10;;;;;;;4.97;4.03;;;22.90;98.10;;;;;;5030840;28;20044;-42
2021/08/13 09:59:36;;;;;;;5.72;4.60;;;23.00;98.10;;;;;;5032785;28;20048;-42
2021/08/13 10:02:13;;;;;;;7.78;4.70;;;22.90;98.10;;;;;;5036642;28;20029;-42
2021/08/13 10:04:42;;;;;;;5.88;4.13;;;22.80;97.90;;;;;;5040236;28;20040;-37
2021/08/13 10:07:08;;;;;;;7.07;4.20;;;22.80;98.10;;;;;;5031724;28;20125;-38
2021/08/13 10:09:34;;;;;;;6.43;4.55;;;22.80;97.50;;;;;;5039776;28;20467;-41
2021/08/13 10:12:02;;;;;;;6.20;4.35;;;22.80;96.80;;;;;;5033013;28;20132;-43
2021/08/13 10:14:40;;;;;;;6.05;3.70;;;22.80;96.60;;;;;;5030429;28;20071;-42
2021/08/13 10:17:13;;;;;;;6.47;4.18;;;22.80;96.70;;;;;;5030302;28;20113;-40
2021/08/13 10:19:44;;;;;;;4.68;3.67;;;22.80;96.60;;;;;;5030616;28;20042;-43
2021/08/13 10:22:10;;;;;;;5.03;3.97;;;22.80;96.60;;;;;;5037465;28;20033;-42
2021/08/13 10:24:38;;;;;;;5.38;4.00;;;22.80;96.20;;;;;;5044122;28;20104;-42
2021/08/13 10:27:05;;;;;;;5.82;3.33;;;22.80;96.20;;;;;;5034705;28;20056;-38
2021/08/13 10:29:30;;;;;;;5.97;4.53;;;22.70;96.00;;;;;;5029481;28;20025;-41
2021/08/13 10:31:57;;;;;;;6.90;4.00;;;22.70;95.70;;;;;;5029620;28;20442;-36
2021/08/13 10:34:23;;;;;;;9.38;5.43;;;22.60;95.90;;;;;;5029997;28;20029;-40
2021/08/13 10:36:50;;;;;;;6.45;4.70;;;22.60;95.80;;;;;;5029779;28;20023;-41
2021/08/13 10:39:21;;;;;;;7.22;4.90;;;22.60;95.90;;;;;;5030411;28;20097;-39
2021/08/13 10:41:49;;;;;;;6.55;5.10;;;22.70;95.90;;;;;;5028953;28;20021;-41
2021/08/13 10:44:19;;;;;;;9.68;5.30;;;22.60;95.70;;;;;;5030319;28;20072;-41
2021/08/13 10:46:48;;;;;;;9.52;5.32;;;22.60;95.80;;;;;;5029339;28;20025;-39
2021/08/13 10:49:17;;;;;;;6.47;4.80;;;22.70;95.70;;;;;;5029540;28;20033;-40
2021/08/13 10:51:43;;;;;;;10.13;5.28;;;22.60;95.70;;;;;;5030408;28;20034;-39
2021/08/13 10:54:10;;;;;;;9.75;5.47;;;22.60;95.50;;;;;;5018465;28;20067;-43
2021/08/13 10:56:41;;;;;;;9.57;4.93;;;22.60;95.50;;;;;;5029223;28;20056;-41
2021/08/13 10:59:06;;;;;;;8.88;5.05;;;22.70;95.70;;;;;;5028877;28;20033;-40
2021/08/13 11:01:32;;;;;;;5.25;3.80;;;22.90;95.60;;;;;;5029869;28;20489;-40
2021/08/13 11:03:57;;;;;;;7.85;5.25;;;23.10;95.60;;;;;;5028412;28;20017;-37
2021/08/13 11:06:38;;;;;;;8.25;4.88;;;23.30;95.30;;;;;;5030464;28;20033;-39
2021/08/13 11:09:08;;;;;;;9.27;4.82;;;23.50;94.70;;;;;;5028067;28;20022;-37
2021/08/13 11:11:52;;;;;;;9.50;4.07;;;23.50;94.30;;;;;;5028857;28;20099;-39
2021/08/13 11:14:31;;;;;;;12.75;4.95;;;23.50;94.30;;;;;;5029557;28;20095;-42
2021/08/13 11:16:57;;;;;;;8.40;4.78;;;23.40;94.10;;;;;;5027134;28;20473;-42
2021/08/13 11:19:23;;;;;;;4.95;3.58;;;23.30;93.90;;;;;;5029898;28;20018;-40
2021/08/13 11:21:53;;;;;;;7.45;3.83;;;23.40;94.10;;;;;;5029136;28;20064;-39
2021/08/13 11:24:50;;;;;;;6.97;3.70;;;23.50;93.90;;;;;;5028780;28;20037;-39
2021/08/13 11:27:15;;;;;;;5.93;3.60;;;23.60;92.80;;;;;;5029075;28;20132;-40
2021/08/13 11:29:45;;;;;;;6.28;3.50;;;23.70;92.90;;;;;;5029112;28;20100;-39
2021/08/13 11:32:13;;;;;;;5.63;3.53;;;23.80;92.80;;;;;;5045178;28;20362;-38
2021/08/13 11:34:51;;;;;;;6.15;3.10;;;23.90;92.70;;;;;;5030731;28;20465;-41
2021/08/13 11:37:35;;;;;;;4.68;2.90;;;24.10;92.80;;;;;;5029592;28;20057;-40
2021/08/13 11:40:08;;;;;;;3.90;2.70;;;24.10;92.00;;;;;;5028002;28;20025;-42
2021/08/13 11:42:35;;;;;;;3.85;2.83;;;24.10;91.90;;;;;;5029749;28;20030;-37
2021/08/13 11:45:06;;;;;;;4.57;2.35;;;24.20;91.80;;;;;;5028116;28;20022;-41
2021/08/13 11:47:31;;;;;;;5.05;3.03;;;24.20;92.10;;;;;;5029396;28;20044;-42
2021/08/13 11:49:57;;;;;;;4.60;2.92;;;24.20;91.90;;;;;;5028320;28;20030;-42
2021/08/13 11:52:26;;;;;;;6.93;2.92;;;24.30;91.80;;;;;;5029273;28;20029;-39
2021/08/13 11:54:52;;;;;;;5.35;2.78;;;24.30;91.60;;;;;;5036781;28;20031;-38
2021/08/13 11:57:19;;;;;;;5.72;2.95;;;24.30;91.80;;;;;;5029978;28;20412;-40
2021/08/13 11:59:46;;;;;;;4.97;3.10;;;24.40;91.60;;;;;;5027335;28;20017;-42
2021/08/13 12:02:13;;;;;;;4.72;2.90;;;24.40;91.20;;;;;;5029372;28;20062;-42
2021/08/13 12:04:39;;;;;;;4.50;2.60;;;24.50;90.90;;;;;;5029214;28;20009;-42
2021/08/13 12:07:10;;;;;;;4.10;2.22;;;24.50;90.60;;;;;;5028445;28;20065;-37
2021/08/13 12:09:37;;;;;;;4.82;2.20;;;24.60;90.60;;;;;;5029035;28;20037;-40
2021/08/13 12:12:29;;;;;;;2.80;2.00;;;24.60;90.40;;;;;;5028767;28;20099;-41
2021/08/13 12:14:56;;;;;;;2.57;2.00;;;24.70;90.70;;;;;;5027962;28;20013;-42
2021/08/13 12:17:22;;;;;;;3.35;2.40;;;24.90;90.50;;;;;;5028675;28;20311;-39
2021/08/13 12:19:55;;;;;;;3.45;2.15;;;24.90;90.30;;;;;;5026437;28;20445;-42
2021/08/13 12:22:31;;;;;;;4.32;2.30;;;25.00;90.50;;;;;;5028975;28;20028;-41
2021/08/13 12:24:57;;;;;;;3.92;2.15;;;25.10;87.40;;;;;;5027983;28;20175;-40
2021/08/13 12:27:29;;;;;;;5.10;2.25;;;25.00;86.70;;;;;;5029146;28;20504;-43
2021/08/13 12:29:54;;;;;;;3.90;1.90;;;24.90;84.90;;;;;;5042912;28;20080;-39
2021/08/13 12:32:20;;;;;;;4.45;2.05;;;24.80;85.00;;;;;;5036127;28;20018;-40
2021/08/13 12:34:52;;;;;;;4.22;2.20;;;24.70;84.50;;;;;;5031650;28;20091;-43
2021/08/13 12:37:20;;;;;;;5.30;2.00;;;24.70;85.60;;;;;;5032497;28;20013;-39
2021/08/13 12:39:48;;;;;;;5.53;1.80;;;24.60;86.20;;;;;;5031567;28;20072;-39
2021/08/13 12:42:15;;;;;;;3.08;1.88;;;24.70;86.60;;;;;;5031307;28;20259;-40
2021/08/13 12:44:42;;;;;;;3.15;1.77;;;24.80;86.00;;;;;;5032512;28;20035;-42